createdAt,value
2023-05-17T00:01:14.316Z,5.50
2023-05-17T00:06:10.688Z,5.55
2023-05-17T00:11:07.104Z,5.78
2023-05-17T00:16:04.011Z,5.53
2023-05-17T00:21:00.387Z,5.65
2023-05-17T00:25:56.665Z,5.32
2023-05-17T00:30:52.964Z,5.55
2023-05-17T00:35:49.263Z,4.45
2023-05-17T00:40:45.774Z,5.30
2023-05-17T00:45:42.060Z,5.72
2023-05-17T00:50:38.460Z,7.00
2023-05-17T00:55:34.872Z,5.13
2023-05-17T01:00:31.313Z,5.78
2023-05-17T01:05:28.725Z,5.22
2023-05-17T01:10:34.141Z,6.32
2023-05-17T01:15:32.857Z,5.50
2023-05-17T01:20:32.342Z,6.75
2023-05-17T01:25:42.371Z,6.60
2023-05-17T01:30:39.524Z,5.72
2023-05-17T01:35:35.873Z,5.63
2023-05-17T01:40:34.087Z,5.20
2023-05-17T01:45:32.152Z,5.22
2023-05-17T01:50:30.433Z,5.93
2023-05-17T01:55:34.285Z,5.57
2023-05-17T02:00:30.905Z,4.90
2023-05-17T02:05:27.325Z,4.65
2023-05-17T02:10:23.774Z,4.97
2023-05-17T02:15:20.088Z,4.65
2023-05-17T02:20:16.441Z,5.38
2023-05-17T02:25:12.822Z,4.40
2023-05-17T02:30:09.302Z,3.88
2023-05-17T02:35:05.758Z,4.43
2023-05-17T02:40:02.075Z,4.28
2023-05-17T02:44:58.459Z,4.22
2023-05-17T02:49:54.704Z,3.70
2023-05-17T02:54:51.616Z,6.07
2023-05-17T02:59:47.977Z,5.03
2023-05-17T03:04:44.499Z,3.63
2023-05-17T03:09:42.071Z,5.15
2023-05-17T03:14:38.424Z,4.40
2023-05-17T03:19:34.804Z,5.13
2023-05-17T03:24:31.101Z,4.38
2023-05-17T03:29:27.415Z,5.07
2023-05-17T03:34:23.650Z,4.53
2023-05-17T03:39:19.925Z,4.65
2023-05-17T03:44:16.208Z,3.97
2023-05-17T03:49:12.613Z,4.25
2023-05-17T03:54:09.063Z,5.22
2023-05-17T03:59:05.533Z,5.57
2023-05-17T04:04:04.345Z,4.22
2023-05-17T04:09:00.933Z,4.63
2023-05-17T04:13:57.337Z,4.70
2023-05-17T04:18:53.707Z,4.43
2023-05-17T04:23:50.116Z,5.60
2023-05-17T04:28:46.388Z,5.40
2023-05-17T04:33:42.720Z,6.05
2023-05-17T04:38:39.122Z,5.97
2023-05-17T04:43:35.670Z,6.78
2023-05-17T04:48:32.520Z,5.72
2023-05-17T04:53:28.914Z,6.28
2023-05-17T04:58:25.580Z,7.68
2023-05-17T05:03:24.979Z,6.80
2023-05-17T05:08:21.456Z,6.95
2023-05-17T05:13:17.735Z,8.00
2023-05-17T05:18:14.165Z,7.57
2023-05-17T05:23:10.530Z,7.43
2023-05-17T05:28:06.844Z,7.18
2023-05-17T05:33:03.599Z,6.93
2023-05-17T05:38:00.292Z,7.05
2023-05-17T05:42:56.910Z,7.80
2023-05-17T05:47:53.335Z,7.10
2023-05-17T05:52:49.710Z,8.57
2023-05-17T05:57:46.021Z,7.40
2023-05-17T06:02:42.357Z,7.43
2023-05-17T06:07:41.475Z,6.35
2023-05-17T06:12:40.471Z,6.53
2023-05-17T06:17:36.783Z,6.72
2023-05-17T06:22:33.138Z,7.63
2023-05-17T06:27:35.618Z,6.15
2023-05-17T06:37:31.949Z,5.88
2023-05-17T06:42:28.233Z,6.88
2023-05-17T06:47:24.724Z,5.72
2023-05-17T06:52:21.193Z,5.93
2023-05-17T06:57:17.502Z,4.93
2023-05-17T07:02:13.775Z,5.70
2023-05-17T07:07:10.336Z,6.60
2023-05-17T07:12:06.800Z,4.85
2023-05-17T07:17:03.239Z,4.95
2023-05-17T07:21:59.490Z,4.90
2023-05-17T07:26:55.816Z,5.78
2023-05-17T07:31:52.108Z,4.57
2023-05-17T07:36:48.381Z,5.93
2023-05-17T07:41:44.650Z,5.25
2023-05-17T07:46:41.142Z,4.95
2023-05-17T07:51:37.556Z,5.40
2023-05-17T07:56:33.881Z,5.80
2023-05-17T08:01:30.884Z,6.05
2023-05-17T08:06:27.386Z,5.18
2023-05-17T08:11:23.813Z,5.68
2023-05-17T08:16:20.099Z,5.18
2023-05-17T08:21:16.964Z,5.43
2023-05-17T08:26:13.284Z,6.18
2023-05-17T08:31:09.730Z,5.15
2023-05-17T08:36:08.258Z,5.88
2023-05-17T08:41:04.600Z,5.82
2023-05-17T08:46:03.619Z,5.32
2023-05-17T08:51:00.058Z,5.32
2023-05-17T08:56:00.580Z,5.30
2023-05-17T09:00:58.255Z,5.90
2023-05-17T09:05:54.748Z,6.43
2023-05-17T09:10:51.240Z,5.72
2023-05-17T09:15:48.182Z,5.95
2023-05-17T09:20:49.525Z,5.07
2023-05-17T09:25:49.043Z,5.70
2023-05-17T09:30:48.231Z,5.60
2023-05-17T09:35:44.582Z,5.93
2023-05-17T09:40:41.448Z,5.82
2023-05-17T09:45:38.072Z,5.55
2023-05-17T09:50:34.313Z,5.47
2023-05-17T09:55:30.921Z,4.70
2023-05-17T10:00:27.588Z,5.45
2023-05-17T10:05:24.151Z,5.45
2023-05-17T10:10:20.748Z,5.38
2023-05-17T10:15:17.731Z,6.28
2023-05-17T10:20:15.464Z,5.72
2023-05-17T10:25:12.576Z,5.35
2023-05-17T10:30:09.934Z,5.25
2023-05-17T10:35:11.975Z,5.38
2023-05-17T10:40:15.035Z,7.25
2023-05-17T10:45:12.184Z,5.35
2023-05-17T10:50:13.112Z,5.43
2023-05-17T10:55:10.268Z,5.70
2023-05-17T11:00:10.836Z,5.75
2023-05-17T11:05:07.728Z,5.10
2023-05-17T11:10:08.574Z,5.07
2023-05-17T11:15:11.930Z,5.60
2023-05-17T11:20:13.926Z,6.38
2023-05-17T11:25:12.028Z,5.05
2023-05-17T11:30:21.739Z,5.10
2023-05-17T11:35:23.879Z,5.35
2023-05-17T11:40:27.899Z,5.05
2023-05-17T11:45:24.919Z,5.55
2023-05-17T11:50:21.519Z,5.18
2023-05-17T11:55:17.875Z,5.35
2023-05-17T12:00:16.661Z,5.20
2023-05-17T12:05:19.599Z,5.20
2023-05-17T12:10:16.399Z,4.80
2023-05-17T12:15:17.732Z,5.78
2023-05-17T12:20:14.435Z,5.25
2023-05-17T12:25:27.841Z,5.35
2023-05-17T12:30:24.477Z,5.95
2023-05-17T12:35:20.966Z,5.75
2023-05-17T12:40:17.271Z,5.82
2023-05-17T12:45:13.766Z,6.22
2023-05-17T12:50:11.198Z,5.72
2023-05-17T12:55:12.679Z,6.60
2023-05-17T13:00:12.401Z,5.75
2023-05-17T13:05:21.728Z,5.68
2023-05-17T13:10:26.377Z,5.90
2023-05-17T13:15:29.508Z,5.00
2023-05-17T13:20:29.214Z,5.97
2023-05-17T13:25:26.016Z,6.30
2023-05-17T13:30:22.340Z,5.30
2023-05-17T13:35:18.661Z,5.38
2023-05-17T13:40:15.099Z,5.70
2023-05-17T13:45:12.701Z,5.75
2023-05-17T13:50:09.848Z,5.57
2023-05-17T13:55:06.694Z,5.50
2023-05-17T14:00:03.534Z,6.35
2023-05-17T14:04:59.835Z,5.88
2023-05-17T14:09:56.161Z,6.38
2023-05-17T14:14:52.556Z,5.35
2023-05-17T14:19:49.024Z,5.63
2023-05-17T14:24:45.366Z,5.50
2023-05-17T14:29:41.684Z,6.35
2023-05-17T14:34:38.093Z,6.45
2023-05-17T14:39:34.353Z,6.38
2023-05-17T14:44:31.030Z,6.85
2023-05-17T14:49:27.486Z,5.55
2023-05-17T14:54:25.473Z,5.82
2023-05-17T14:59:21.817Z,5.45
2023-05-17T15:04:18.678Z,4.88
2023-05-17T15:09:18.145Z,6.07
2023-05-17T15:14:19.026Z,5.35
2023-05-17T15:19:16.015Z,5.93
2023-05-17T15:24:13.896Z,6.15
2023-05-17T15:29:11.639Z,6.35
2023-05-17T15:34:08.747Z,6.38
2023-05-17T15:39:05.209Z,6.35
2023-05-17T15:44:01.706Z,5.68
2023-05-17T15:48:58.117Z,7.50
2023-05-17T15:53:55.125Z,6.28
2023-05-17T15:58:51.586Z,5.72
2023-05-17T16:03:47.913Z,5.18
2023-05-17T16:08:44.232Z,6.05
2023-05-17T16:13:40.609Z,6.00
2023-05-17T16:18:37.124Z,4.88
2023-05-17T16:23:33.708Z,6.40
2023-05-17T16:28:32.195Z,5.30
2023-05-17T16:33:28.581Z,4.82
2023-05-17T16:38:25.517Z,5.50
2023-05-17T16:43:24.947Z,5.15
2023-05-17T16:48:21.335Z,4.80
2023-05-17T16:53:17.740Z,5.78
2023-05-17T16:58:14.054Z,5.13
2023-05-17T17:03:10.565Z,5.10
2023-05-17T17:08:08.049Z,5.28
2023-05-17T17:13:04.800Z,5.65
2023-05-17T17:18:03.908Z,5.75
2023-05-17T17:23:00.364Z,5.82
2023-05-17T17:27:56.613Z,6.45
2023-05-17T17:32:53.025Z,6.70
2023-05-17T17:37:49.453Z,7.72
2023-05-17T17:42:45.806Z,6.55
2023-05-17T17:47:42.375Z,8.00
2023-05-17T17:52:39.773Z,5.38
2023-05-17T17:57:38.218Z,5.35
2023-05-17T18:02:34.499Z,5.95
2023-05-17T18:07:31.088Z,5.95
2023-05-17T18:12:27.761Z,6.13
2023-05-17T18:17:24.114Z,5.32
2023-05-17T18:22:20.434Z,6.07
2023-05-17T18:27:17.064Z,5.00
2023-05-17T18:32:13.404Z,5.43
2023-05-17T18:37:09.673Z,5.03
2023-05-17T18:42:06.080Z,5.00
2023-05-17T18:47:02.449Z,4.93
2023-05-17T18:51:58.820Z,5.15
2023-05-17T18:56:55.292Z,5.07
2023-05-17T19:01:51.569Z,4.72
2023-05-17T19:06:48.321Z,4.63
2023-05-17T19:11:44.608Z,4.60
2023-05-17T19:16:41.292Z,4.90
2023-05-17T19:21:37.665Z,5.15
2023-05-17T19:26:33.990Z,4.88
2023-05-17T19:31:30.268Z,4.35
2023-05-17T19:36:26.591Z,4.03
2023-05-17T19:41:22.915Z,5.00
2023-05-17T19:46:19.365Z,4.60
2023-05-17T19:51:15.660Z,4.80
2023-05-17T19:56:11.997Z,4.78
2023-05-17T20:01:08.274Z,5.50
2023-05-17T20:06:04.596Z,4.88
2023-05-17T20:11:00.899Z,5.03
2023-05-17T20:15:57.256Z,6.25
2023-05-17T20:20:55.831Z,4.40
2023-05-17T20:25:52.204Z,5.00
2023-05-17T20:30:48.510Z,5.75
2023-05-17T20:35:44.808Z,5.25
2023-05-17T20:40:41.113Z,4.85
2023-05-17T20:45:37.649Z,4.13
2023-05-17T20:50:33.982Z,4.85
2023-05-17T20:55:30.422Z,4.65
2023-05-17T21:00:26.931Z,5.13
2023-05-17T21:05:23.317Z,4.47
2023-05-17T21:10:19.668Z,4.43
2023-05-17T21:15:17.476Z,4.82
2023-05-17T21:20:14.305Z,4.45
2023-05-17T21:25:13.596Z,4.45
2023-05-17T21:30:10.009Z,4.57
2023-05-17T21:35:06.393Z,4.35
2023-05-17T21:40:03.046Z,3.67
2023-05-17T21:44:59.361Z,3.78
2023-05-17T21:49:56.528Z,5.65
2023-05-17T21:54:52.828Z,4.03
2023-05-17T21:59:49.369Z,4.25
2023-05-17T22:04:45.647Z,3.85
2023-05-17T22:09:48.121Z,3.60
2023-05-17T22:19:41.714Z,3.75
2023-05-17T22:24:37.996Z,3.65
2023-05-17T22:29:34.296Z,3.60
2023-05-17T22:34:30.684Z,3.40
2023-05-17T22:39:26.986Z,3.47
2023-05-17T22:44:30.672Z,3.80
2023-05-17T22:49:26.993Z,3.95
2023-05-17T22:54:23.308Z,3.42
2023-05-17T22:59:19.618Z,3.78
2023-05-17T23:04:15.999Z,4.03
2023-05-17T23:09:12.291Z,3.70
2023-05-17T23:14:08.569Z,3.78
2023-05-17T23:19:04.885Z,3.70
2023-05-17T23:24:01.279Z,3.90
2023-05-17T23:28:57.960Z,3.83
2023-05-17T23:33:54.248Z,3.80
2023-05-17T23:38:50.574Z,3.92
2023-05-17T23:43:46.988Z,5.53
2023-05-17T23:48:44.527Z,4.47
2023-05-17T23:53:42.113Z,3.50
2023-05-17T23:58:38.370Z,3.65
